sensor_id;sensor_type;location;lat;lon;timestamp;pressure;altitude;pressure_sealevel;temperature
70969;BMP280;58630;43.022;25.100;2022-12-18T00:01:49;100206.66;;;11.73
70969;BMP280;58630;43.022;25.100;2022-12-18T00:04:20;100208.47;;;11.73
70969;BMP280;58630;43.022;25.100;2022-12-18T00:06:45;100206.88;;;11.72
70969;BMP280;58630;43.022;25.100;2022-12-18T00:09:10;100207.69;;;11.72
70969;BMP280;58630;43.022;25.100;2022-12-18T00:11:36;100202.50;;;11.72
70969;BMP280;58630;43.022;25.100;2022-12-18T00:14:01;100212.09;;;11.72
70969;BMP280;58630;43.022;25.100;2022-12-18T00:16:27;100213.94;;;11.71
70969;BMP280;58630;43.022;25.100;2022-12-18T00:18:53;100215.72;;;11.71
70969;BMP280;58630;43.022;25.100;2022-12-18T00:21:19;100235.53;;;11.72
70969;BMP280;58630;43.022;25.100;2022-12-18T00:23:45;100220.94;;;11.71
70969;BMP280;58630;43.022;25.100;2022-12-18T00:26:12;100226.38;;;11.69
70969;BMP280;58630;43.022;25.100;2022-12-18T00:28:37;100236.81;;;11.69
70969;BMP280;58630;43.022;25.100;2022-12-18T00:31:06;100236.00;;;11.69
70969;BMP280;58630;43.022;25.100;2022-12-18T00:33:32;100243.03;;;11.68
70969;BMP280;58630;43.022;25.100;2022-12-18T00:36:02;100246.66;;;11.67
70969;BMP280;58630;43.022;25.100;2022-12-18T00:38:27;100246.66;;;11.67
70969;BMP280;58630;43.022;25.100;2022-12-18T00:40:52;100242.50;;;11.66
70969;BMP280;58630;43.022;25.100;2022-12-18T00:43:18;100244.31;;;11.66
70969;BMP280;58630;43.022;25.100;2022-12-18T00:45:43;100251.34;;;11.65
70969;BMP280;58630;43.022;25.100;2022-12-18T00:48:08;100246.13;;;11.65
70969;BMP280;58630;43.022;25.100;2022-12-18T00:50:33;100254.97;;;11.64
70969;BMP280;58630;43.022;25.100;2022-12-18T00:52:59;100254.97;;;11.64
70969;BMP280;58630;43.022;25.100;2022-12-18T00:55:24;100257.56;;;11.64
70969;BMP280;58630;43.022;25.100;2022-12-18T00:57:50;100257.56;;;11.64
70969;BMP280;58630;43.022;25.100;2022-12-18T01:00:16;100261.97;;;11.64
70969;BMP280;58630;43.022;25.100;2022-12-18T01:02:41;100261.19;;;11.63
70969;BMP280;58630;43.022;25.100;2022-12-18T01:05:07;100257.00;;;11.62
70969;BMP280;58630;43.022;25.100;2022-12-18T01:07:32;100268.19;;;11.63
70969;BMP280;58630;43.022;25.100;2022-12-18T01:09:58;100264.81;;;11.62
70969;BMP280;58630;43.022;25.100;2022-12-18T01:12:23;100267.44;;;11.62
70969;BMP280;58630;43.022;25.100;2022-12-18T01:14:48;100271.84;;;11.62
70969;BMP280;58630;43.022;25.100;2022-12-18T01:17:14;100267.44;;;11.62
70969;BMP280;58630;43.022;25.100;2022-12-18T01:19:39;100275.25;;;11.62
70969;BMP280;58630;43.022;25.100;2022-12-18T01:22:04;100278.63;;;11.63
70969;BMP280;58630;43.022;25.100;2022-12-18T01:24:29;100283.28;;;11.61
70969;BMP280;58630;43.022;25.100;2022-12-18T01:26:55;100280.94;;;11.59
70969;BMP280;58630;43.022;25.100;2022-12-18T01:29:22;100276.50;;;11.60
70969;BMP280;58630;43.022;25.100;2022-12-18T01:31:48;100282.78;;;11.59
70969;BMP280;58630;43.022;25.100;2022-12-18T01:34:16;100280.94;;;11.59
70969;BMP280;58630;43.022;25.100;2022-12-18T01:36:41;100283.53;;;11.59
70969;BMP280;58630;43.022;25.100;2022-12-18T01:39:10;100279.38;;;11.58
70969;BMP280;58630;43.022;25.100;2022-12-18T01:41:36;100291.34;;;11.59
70969;BMP280;58630;43.022;25.100;2022-12-18T01:47:04;100293.19;;;11.59
70969;BMP280;58630;43.022;25.100;2022-12-18T01:49:29;100299.16;;;11.59
70969;BMP280;58630;43.022;25.100;2022-12-18T01:51:54;100294.22;;;11.58
70969;BMP280;58630;43.022;25.100;2022-12-18T01:54:20;100293.41;;;11.57
70969;BMP280;58630;43.022;25.100;2022-12-18T01:56:45;100296.00;;;11.57
70969;BMP280;58630;43.022;25.100;2022-12-18T01:59:11;100288.19;;;11.57
70969;BMP280;58630;43.022;25.100;2022-12-18T02:01:38;100296.00;;;11.57
70969;BMP280;58630;43.022;25.100;2022-12-18T02:07:16;100302.22;;;11.56
70969;BMP280;58630;43.022;25.100;2022-12-18T02:09:40;100303.50;;;11.54
70969;BMP280;58630;43.022;25.100;2022-12-18T02:24:48;100305.56;;;11.52
70969;BMP280;58630;43.022;25.100;2022-12-18T02:27:16;100309.97;;;11.51
70969;BMP280;58630;43.022;25.100;2022-12-18T02:29:46;100316.72;;;11.52
70969;BMP280;58630;43.022;25.100;2022-12-18T02:32:20;100314.41;;;11.51
70969;BMP280;58630;43.022;25.100;2022-12-18T02:34:47;100314.41;;;11.51
70969;BMP280;58630;43.022;25.100;2022-12-18T02:37:14;100319.59;;;11.51
70969;BMP280;58630;43.022;25.100;2022-12-18T02:39:41;100324.00;;;11.50
70969;BMP280;58630;43.022;25.100;2022-12-18T02:42:07;100329.22;;;11.50
70969;BMP280;58630;43.022;25.100;2022-12-18T02:44:45;100321.41;;;11.50
70969;BMP280;58630;43.022;25.100;2022-12-18T02:47:11;100340.66;;;11.49
70969;BMP280;58630;43.022;25.100;2022-12-18T02:57:34;100330.69;;;11.46
70969;BMP280;58630;43.022;25.100;2022-12-18T03:00:08;100336.97;;;11.45
70969;BMP280;58630;43.022;25.100;2022-12-18T03:02:45;100347.38;;;11.45
70969;BMP280;58630;43.022;25.100;2022-12-18T03:05:17;100355.94;;;11.46
70969;BMP280;58630;43.022;25.100;2022-12-18T03:07:48;100354.66;;;11.43
70969;BMP280;58630;43.022;25.100;2022-12-18T03:10:16;100358.03;;;11.44
70969;BMP280;58630;43.022;25.100;2022-12-18T03:12:45;100366.84;;;11.43
70969;BMP280;58630;43.022;25.100;2022-12-18T03:15:13;100372.06;;;11.43
70969;BMP280;58630;43.022;25.100;2022-12-18T03:17:40;100372.06;;;11.43
70969;BMP280;58630;43.022;25.100;2022-12-18T03:20:08;100388.69;;;11.42
70969;BMP280;58630;43.022;25.100;2022-12-18T03:22:35;100393.13;;;11.41
70969;BMP280;58630;43.022;25.100;2022-12-18T03:25:03;100388.13;;;11.40
70969;BMP280;58630;43.022;25.100;2022-12-18T03:27:29;100396.75;;;11.40
70969;BMP280;58630;43.022;25.100;2022-12-18T03:30:05;100412.34;;;11.40
70969;BMP280;58630;43.022;25.100;2022-12-18T03:32:39;100403.75;;;11.40
70969;BMP280;58630;43.022;25.100;2022-12-18T03:35:06;100409.19;;;11.38
70969;BMP280;58630;43.022;25.100;2022-12-18T03:37:33;100415.97;;;11.39
70969;BMP280;58630;43.022;25.100;2022-12-18T03:39:58;100425.59;;;11.39
70969;BMP280;58630;43.022;25.100;2022-12-18T03:49:50;100438.84;;;11.37
70969;BMP280;58630;43.022;25.100;2022-12-18T03:52:23;100445.09;;;11.36
70969;BMP280;58630;43.022;25.100;2022-12-18T03:54:51;100451.84;;;11.37
70969;BMP280;58630;43.022;25.100;2022-12-18T03:57:20;100451.31;;;11.35
70969;BMP280;58630;43.022;25.100;2022-12-18T03:59:47;100454.69;;;11.36
70969;BMP280;58630;43.022;25.100;2022-12-18T04:02:15;100460.91;;;11.35
70969;BMP280;58630;43.022;25.100;2022-12-18T04:04:41;100455.72;;;11.35
70969;BMP280;58630;43.022;25.100;2022-12-18T04:07:07;100463.50;;;11.35
70969;BMP280;58630;43.022;25.100;2022-12-18T04:09:33;100464.53;;;11.34
70969;BMP280;58630;43.022;25.100;2022-12-18T04:11:59;100474.16;;;11.33
70969;BMP280;58630;43.022;25.100;2022-12-18T04:14:24;100477.56;;;11.34
70969;BMP280;58630;43.022;25.100;2022-12-18T04:16:49;100483.00;;;11.32
70969;BMP280;58630;43.022;25.100;2022-12-18T04:19:15;100483.22;;;11.31
70969;BMP280;58630;43.022;25.100;2022-12-18T04:21:40;100480.59;;;11.31
70969;BMP280;58630;43.022;25.100;2022-12-18T04:24:05;100496.22;;;11.31
70969;BMP280;58630;43.022;25.100;2022-12-18T04:26:30;100494.66;;;11.30
70969;BMP280;58630;43.022;25.100;2022-12-18T04:28:56;100499.09;;;11.29
70969;BMP280;58630;43.022;25.100;2022-12-18T04:31:21;100515.47;;;11.30
70969;BMP280;58630;43.022;25.100;2022-12-18T04:33:46;100506.91;;;11.29
70969;BMP280;58630;43.022;25.100;2022-12-18T04:36:12;100508.72;;;11.29
70969;BMP280;58630;43.022;25.100;2022-12-18T04:38:37;100507.91;;;11.28
70969;BMP280;58630;43.022;25.100;2022-12-18T04:41:02;100515.72;;;11.28
70969;BMP280;58630;43.022;25.100;2022-12-18T04:43:28;100518.31;;;11.28
70969;BMP280;58630;43.022;25.100;2022-12-18T04:45:53;100518.31;;;11.28
70969;BMP280;58630;43.022;25.100;2022-12-18T04:48:18;100515.97;;;11.27
70969;BMP280;58630;43.022;25.100;2022-12-18T04:50:46;100524.53;;;11.27
70969;BMP280;58630;43.022;25.100;2022-12-18T04:53:11;100528.97;;;11.27
70969;BMP280;58630;43.022;25.100;2022-12-18T04:55:36;100532.81;;;11.24
70969;BMP280;58630;43.022;25.100;2022-12-18T04:58:02;100540.41;;;11.26
70969;BMP280;58630;43.022;25.100;2022-12-18T05:00:27;100535.19;;;11.26
70969;BMP280;58630;43.022;25.100;2022-12-18T05:02:52;100540.59;;;11.24
70969;BMP280;58630;43.022;25.100;2022-12-18T05:05:18;100541.63;;;11.23
70969;BMP280;58630;43.022;25.100;2022-12-18T05:07:43;100541.63;;;11.23
70969;BMP280;58630;43.022;25.100;2022-12-18T05:10:08;100546.81;;;11.23
70969;BMP280;58630;43.022;25.100;2022-12-18T05:12:34;100549.44;;;11.23
70969;BMP280;58630;43.022;25.100;2022-12-18T05:15:19;100553.88;;;11.23
70969;BMP280;58630;43.022;25.100;2022-12-18T05:17:44;100558.28;;;11.22
70969;BMP280;58630;43.022;25.100;2022-12-18T05:20:10;100563.47;;;11.22
70969;BMP280;58630;43.022;25.100;2022-12-18T05:22:35;100563.47;;;11.22
70969;BMP280;58630;43.022;25.100;2022-12-18T05:25:00;100565.31;;;11.22
70969;BMP280;58630;43.022;25.100;2022-12-18T05:27:26;100567.91;;;11.22
70969;BMP280;58630;43.022;25.100;2022-12-18T05:29:51;100569.69;;;11.21
70969;BMP280;58630;43.022;25.100;2022-12-18T05:32:16;100573.31;;;11.20
70969;BMP280;58630;43.022;25.100;2022-12-18T05:34:41;100573.13;;;11.22
70969;BMP280;58630;43.022;25.100;2022-12-18T05:37:07;100569.69;;;11.21
70969;BMP280;58630;43.022;25.100;2022-12-18T05:39:32;100576.72;;;11.21
70969;BMP280;58630;43.022;25.100;2022-12-18T05:41:57;100579.34;;;11.21
70969;BMP280;58630;43.022;25.100;2022-12-18T05:44:22;100589.75;;;11.21
70969;BMP280;58630;43.022;25.100;2022-12-18T05:46:48;100583.72;;;11.20
70969;BMP280;58630;43.022;25.100;2022-12-18T05:49:13;100589.75;;;11.21
70969;BMP280;58630;43.022;25.100;2022-12-18T05:51:38;100595.72;;;11.21
70969;BMP280;58630;43.022;25.100;2022-12-18T05:54:04;100593.34;;;11.20
70969;BMP280;58630;43.022;25.100;2022-12-18T05:56:29;100593.34;;;11.20
70969;BMP280;58630;43.022;25.100;2022-12-18T05:58:54;100595.97;;;11.20
70969;BMP280;58630;43.022;25.100;2022-12-18T06:01:24;100595.97;;;11.20
70969;BMP280;58630;43.022;25.100;2022-12-18T06:03:51;100608.97;;;11.20
70969;BMP280;58630;43.022;25.100;2022-12-18T06:06:20;100608.16;;;11.19
70969;BMP280;58630;43.022;25.100;2022-12-18T06:08:45;100613.34;;;11.19
70969;BMP280;58630;43.022;25.100;2022-12-18T06:11:11;100610.75;;;11.19
70969;BMP280;58630;43.022;25.100;2022-12-18T06:13:36;100613.34;;;11.19
70969;BMP280;58630;43.022;25.100;2022-12-18T06:16:03;100617.78;;;11.19
70969;BMP280;58630;43.022;25.100;2022-12-18T06:18:28;100630.78;;;11.19
70969;BMP280;58630;43.022;25.100;2022-12-18T06:20:54;100636.78;;;11.19
70969;BMP280;58630;43.022;25.100;2022-12-18T06:23:20;100633.59;;;11.17
70969;BMP280;58630;43.022;25.100;2022-12-18T06:25:46;100639.63;;;11.18
70969;BMP280;58630;43.022;25.100;2022-12-18T06:28:11;100638.81;;;11.17
70969;BMP280;58630;43.022;25.100;2022-12-18T06:30:36;100645.84;;;11.17
70969;BMP280;58630;43.022;25.100;2022-12-18T06:33:01;100657.84;;;11.18
70969;BMP280;58630;43.022;25.100;2022-12-18T06:35:27;100657.03;;;11.17
70969;BMP280;58630;43.022;25.100;2022-12-18T06:37:52;100665.84;;;11.16
70969;BMP280;58630;43.022;25.100;2022-12-18T06:40:17;100668.44;;;11.16
70969;BMP280;58630;43.022;25.100;2022-12-18T06:42:42;100665.84;;;11.16
70969;BMP280;58630;43.022;25.100;2022-12-18T06:45:08;100669.47;;;11.15
70969;BMP280;58630;43.022;25.100;2022-12-18T06:47:33;100671.31;;;11.15
70969;BMP280;58630;43.022;25.100;2022-12-18T06:49:59;100680.91;;;11.14
70969;BMP280;58630;43.022;25.100;2022-12-18T06:52:24;100684.31;;;11.15
70969;BMP280;58630;43.022;25.100;2022-12-18T06:54:49;100690.25;;;11.15
70969;BMP280;58630;43.022;25.100;2022-12-18T06:57:14;100690.25;;;11.15
70969;BMP280;58630;43.022;25.100;2022-12-18T06:59:40;100687.66;;;11.15
70969;BMP280;58630;43.022;25.100;2022-12-18T07:02:05;100693.69;;;11.16
70969;BMP280;58630;43.022;25.100;2022-12-18T07:04:30;100699.94;;;11.15
70969;BMP280;58630;43.022;25.100;2022-12-18T07:06:56;100701.47;;;11.16
70969;BMP280;58630;43.022;25.100;2022-12-18T07:09:21;100703.28;;;11.15
70969;BMP280;58630;43.022;25.100;2022-12-18T07:11:46;100704.09;;;11.16
70969;BMP280;58630;43.022;25.100;2022-12-18T07:14:11;100707.47;;;11.16
70969;BMP280;58630;43.022;25.100;2022-12-18T07:16:37;100708.47;;;11.15
70969;BMP280;58630;43.022;25.100;2022-12-18T07:19:02;100702.53;;;11.15
70969;BMP280;58630;43.022;25.100;2022-12-18T07:21:27;100702.53;;;11.15
70969;BMP280;58630;43.022;25.100;2022-12-18T07:23:52;100705.88;;;11.15
70969;BMP280;58630;43.022;25.100;2022-12-18T07:26:19;100700.69;;;11.15
70969;BMP280;58630;43.022;25.100;2022-12-18T07:28:44;100708.28;;;11.17
70969;BMP280;58630;43.022;25.100;2022-12-18T07:31:11;100701.47;;;11.16
70969;BMP280;58630;43.022;25.100;2022-12-18T07:33:36;100704.88;;;11.16
70969;BMP280;58630;43.022;25.100;2022-12-18T07:36:03;100708.28;;;11.17
70969;BMP280;58630;43.022;25.100;2022-12-18T07:38:29;100711.66;;;11.17
70969;BMP280;58630;43.022;25.100;2022-12-18T07:40:54;100715.84;;;11.18
70969;BMP280;58630;43.022;25.100;2022-12-18T07:43:20;100717.44;;;11.19
70969;BMP280;58630;43.022;25.100;2022-12-18T07:45:45;100721.84;;;11.19
70969;BMP280;58630;43.022;25.100;2022-12-18T07:48:10;100721.63;;;11.20
70969;BMP280;58630;43.022;25.100;2022-12-18T07:50:36;100725.81;;;11.21
70969;BMP280;58630;43.022;25.100;2022-12-18T07:53:01;100725.81;;;11.21
70969;BMP280;58630;43.022;25.100;2022-12-18T07:55:29;100734.16;;;11.23
70969;BMP280;58630;43.022;25.100;2022-12-18T07:57:55;100739.16;;;11.25
70969;BMP280;58630;43.022;25.100;2022-12-18T08:00:20;100738.94;;;11.26
70969;BMP280;58630;43.022;25.100;2022-12-18T08:02:45;100734.53;;;11.27
70969;BMP280;58630;43.022;25.100;2022-12-18T08:05:11;100749.13;;;11.28
70969;BMP280;58630;43.022;25.100;2022-12-18T08:07:36;100740.31;;;11.29
70969;BMP280;58630;43.022;25.100;2022-12-18T08:10:01;100746.84;;;11.31
70969;BMP280;58630;43.022;25.100;2022-12-18T08:12:27;100750.00;;;11.33
70969;BMP280;58630;43.022;25.100;2022-12-18T08:14:52;100744.81;;;11.33
70969;BMP280;58630;43.022;25.100;2022-12-18T08:17:18;100751.59;;;11.34
70969;BMP280;58630;43.022;25.100;2022-12-18T08:19:44;100754.22;;;11.34
70969;BMP280;58630;43.022;25.100;2022-12-18T08:22:09;100758.41;;;11.35
70969;BMP280;58630;43.022;25.100;2022-12-18T08:24:34;100758.41;;;11.35
70969;BMP280;58630;43.022;25.100;2022-12-18T08:27:00;100753.97;;;11.36
70969;BMP280;58630;43.022;25.100;2022-12-18T08:29:25;100757.38;;;11.36
70969;BMP280;58630;43.022;25.100;2022-12-18T08:31:50;100764.16;;;11.37
70969;BMP280;58630;43.022;25.100;2022-12-18T08:34:15;100765.75;;;11.38
70969;BMP280;58630;43.022;25.100;2022-12-18T08:36:41;100766.75;;;11.37
70969;BMP280;58630;43.022;25.100;2022-12-18T08:39:06;100768.34;;;11.38
70969;BMP280;58630;43.022;25.100;2022-12-18T08:41:31;100768.34;;;11.38
70969;BMP280;58630;43.022;25.100;2022-12-18T08:43:57;100768.34;;;11.38
70969;BMP280;58630;43.022;25.100;2022-12-18T08:46:41;100769.13;;;11.39
70969;BMP280;58630;43.022;25.100;2022-12-18T08:49:07;100775.13;;;11.39
70969;BMP280;58630;43.022;25.100;2022-12-18T08:51:33;100771.50;;;11.40
70969;BMP280;58630;43.022;25.100;2022-12-18T08:53:58;100768.09;;;11.40
70969;BMP280;58630;43.022;25.100;2022-12-18T08:56:23;100771.50;;;11.40
70969;BMP280;58630;43.022;25.100;2022-12-18T08:58:53;100761.88;;;11.41
70969;BMP280;58630;43.022;25.100;2022-12-18T09:01:19;100757.50;;;11.41
70969;BMP280;58630;43.022;25.100;2022-12-18T09:03:44;100766.88;;;11.42
70969;BMP280;58630;43.022;25.100;2022-12-18T09:06:12;100763.25;;;11.43
70969;BMP280;58630;43.022;25.100;2022-12-18T09:08:38;100760.66;;;11.43
70969;BMP280;58630;43.022;25.100;2022-12-18T09:11:03;100764.03;;;11.44
70969;BMP280;58630;43.022;25.100;2022-12-18T09:13:28;100769.00;;;11.45
70969;BMP280;58630;43.022;25.100;2022-12-18T09:15:54;100769.78;;;11.46
70969;BMP280;58630;43.022;25.100;2022-12-18T09:18:21;100769.78;;;11.46
70969;BMP280;58630;43.022;25.100;2022-12-18T09:20:47;100770.56;;;11.46
70969;BMP280;58630;43.022;25.100;2022-12-18T09:23:12;100775.00;;;11.46
70969;BMP280;58630;43.022;25.100;2022-12-18T09:25:41;100779.97;;;11.47
70969;BMP280;58630;43.022;25.100;2022-12-18T09:28:09;100778.19;;;11.48
70969;BMP280;58630;43.022;25.100;2022-12-18T09:30:37;100777.38;;;11.47
70969;BMP280;58630;43.022;25.100;2022-12-18T09:33:02;100779.97;;;11.47
70969;BMP280;58630;43.022;25.100;2022-12-18T09:35:27;100777.38;;;11.47
70969;BMP280;58630;43.022;25.100;2022-12-18T09:37:53;100775.56;;;11.48
70969;BMP280;58630;43.022;25.100;2022-12-18T09:40:22;100780.53;;;11.49
70969;BMP280;58630;43.022;25.100;2022-12-18T09:42:51;100788.34;;;11.49
70969;BMP280;58630;43.022;25.100;2022-12-18T09:45:20;100785.75;;;11.49
70969;BMP280;58630;43.022;25.100;2022-12-18T09:47:45;100778.50;;;11.51
70969;BMP280;58630;43.022;25.100;2022-12-18T09:50:23;100786.09;;;11.53
70969;BMP280;58630;43.022;25.100;2022-12-18T09:52:50;100778.28;;;11.53
70969;BMP280;58630;43.022;25.100;2022-12-18T09:57:53;100786.09;;;11.53
70969;BMP280;58630;43.022;25.100;2022-12-18T10:00:20;100786.66;;;11.55
70969;BMP280;58630;43.022;25.100;2022-12-18T10:02:46;100776.47;;;11.53
70969;BMP280;58630;43.022;25.100;2022-12-18T10:14:01;100781.22;;;11.56
70969;BMP280;58630;43.022;25.100;2022-12-18T10:19:18;100783.03;;;11.56
70969;BMP280;58630;43.022;25.100;2022-12-18T10:21:47;100777.59;;;11.57
70969;BMP280;58630;43.022;25.100;2022-12-18T10:26:50;100778.72;;;11.61
70969;BMP280;58630;43.022;25.100;2022-12-18T10:29:17;100778.03;;;11.66
70969;BMP280;58630;43.022;25.100;2022-12-18T10:31:42;100785.50;;;11.62
70969;BMP280;58630;43.022;25.100;2022-12-18T10:34:14;100782.69;;;11.64
70969;BMP280;58630;43.022;25.100;2022-12-18T10:36:40;100786.09;;;11.64
70969;BMP280;58630;43.022;25.100;2022-12-18T10:39:15;100773.06;;;11.64
70969;BMP280;58630;43.022;25.100;2022-12-18T10:41:41;100789.38;;;11.71
70969;BMP280;58630;43.022;25.100;2022-12-18T10:44:27;100780.41;;;11.67
70969;BMP280;58630;43.022;25.100;2022-12-18T10:46:55;100780.97;;;11.69
70969;BMP280;58630;43.022;25.100;2022-12-18T10:49:28;100768.28;;;11.73
70969;BMP280;58630;43.022;25.100;2022-12-18T10:52:05;100777.66;;;11.85
70969;BMP280;58630;43.022;25.100;2022-12-18T10:54:31;100778.63;;;12.07
70969;BMP280;58630;43.022;25.100;2022-12-18T10:57:13;100776.41;;;12.15
70969;BMP280;58630;43.022;25.100;2022-12-18T10:59:52;100789.41;;;11.99
70969;BMP280;58630;43.022;25.100;2022-12-18T11:02:34;100784.53;;;11.91
70969;BMP280;58630;43.022;25.100;2022-12-18T11:05:00;100792.59;;;11.89
70969;BMP280;58630;43.022;25.100;2022-12-18T11:07:26;100787.06;;;11.86
70969;BMP280;58630;43.022;25.100;2022-12-18T11:10:04;100788.88;;;11.85
70969;BMP280;58630;43.022;25.100;2022-12-18T11:12:29;100780.25;;;11.85
70969;BMP280;58630;43.022;25.100;2022-12-18T11:14:55;100770.66;;;11.85
70969;BMP280;58630;43.022;25.100;2022-12-18T11:17:42;100789.41;;;11.87
70969;BMP280;58630;43.022;25.100;2022-12-18T11:20:19;100782.66;;;11.86
70969;BMP280;58630;43.022;25.100;2022-12-18T11:22:53;100781.84;;;11.86
70969;BMP280;58630;43.022;25.100;2022-12-18T11:25:19;100787.06;;;11.86
70969;BMP280;58630;43.022;25.100;2022-12-18T11:27:48;100793.84;;;11.87
70969;BMP280;58630;43.022;25.100;2022-12-18T11:30:28;100786.03;;;11.87
70969;BMP280;58630;43.022;25.100;2022-12-18T11:37:46;100792.25;;;11.86
70969;BMP280;58630;43.022;25.100;2022-12-18T11:45:53;100794.88;;;11.86
70969;BMP280;58630;43.022;25.100;2022-12-18T11:48:22;100798.28;;;11.86
70969;BMP280;58630;43.022;25.100;2022-12-18T11:50:53;100788.06;;;11.85
70969;BMP280;58630;43.022;25.100;2022-12-18T11:53:19;100785.47;;;11.85
70969;BMP280;58630;43.022;25.100;2022-12-18T11:55:54;100787.06;;;11.86
70969;BMP280;58630;43.022;25.100;2022-12-18T12:06:12;100797.47;;;11.86
70969;BMP280;58630;43.022;25.100;2022-12-18T12:16:35;100805.28;;;11.86
70969;BMP280;58630;43.022;25.100;2022-12-18T12:34:34;100804.28;;;11.87
70969;BMP280;58630;43.022;25.100;2022-12-18T12:37:10;100794.09;;;11.85
70969;BMP280;58630;43.022;25.100;2022-12-18T12:39:40;100798.28;;;11.86
70969;BMP280;58630;43.022;25.100;2022-12-18T12:42:10;100797.47;;;11.86
70969;BMP280;58630;43.022;25.100;2022-12-18T12:44:56;100789.66;;;11.86
70969;BMP280;58630;43.022;25.100;2022-12-18T12:47:38;100795.69;;;11.86
70969;BMP280;58630;43.022;25.100;2022-12-18T12:50:05;100806.88;;;11.87
70969;BMP280;58630;43.022;25.100;2022-12-18T12:52:46;100811.31;;;11.86
70969;BMP280;58630;43.022;25.100;2022-12-18T12:55:25;100815.69;;;11.86
70969;BMP280;58630;43.022;25.100;2022-12-18T12:57:56;100814.13;;;11.85
70969;BMP280;58630;43.022;25.100;2022-12-18T13:00:23;100821.94;;;11.85
70969;BMP280;58630;43.022;25.100;2022-12-18T13:10:36;100825.56;;;11.84
70969;BMP280;58630;43.022;25.100;2022-12-18T13:18:05;100835.75;;;11.85
70969;BMP280;58630;43.022;25.100;2022-12-18T13:20:35;100838.56;;;11.84
70969;BMP280;58630;43.022;25.100;2022-12-18T13:23:01;100836.78;;;11.84
70969;BMP280;58630;43.022;25.100;2022-12-18T13:25:36;100838.56;;;11.84
70969;BMP280;58630;43.022;25.100;2022-12-18T13:30:43;100843.00;;;11.83
70969;BMP280;58630;43.022;25.100;2022-12-18T13:35:39;100854.44;;;11.82
70969;BMP280;58630;43.022;25.100;2022-12-18T13:43:24;100843.22;;;11.82
70969;BMP280;58630;43.022;25.100;2022-12-18T13:48:26;100853.88;;;11.80
70969;BMP280;58630;43.022;25.100;2022-12-18T13:51:13;100860.91;;;11.80
70969;BMP280;58630;43.022;25.100;2022-12-18T13:53:48;100865.31;;;11.79
70969;BMP280;58630;43.022;25.100;2022-12-18T13:56:15;100869.72;;;11.79
70969;BMP280;58630;43.022;25.100;2022-12-18T13:58:40;100873.34;;;11.78
70969;BMP280;58630;43.022;25.100;2022-12-18T14:01:15;100875.16;;;11.77
70969;BMP280;58630;43.022;25.100;2022-12-18T14:03:40;100874.59;;;11.76
70969;BMP280;58630;43.022;25.100;2022-12-18T14:06:06;100868.59;;;11.75
70969;BMP280;58630;43.022;25.100;2022-12-18T14:08:33;100866.00;;;11.75
70969;BMP280;58630;43.022;25.100;2022-12-18T14:10:59;100868.59;;;11.75
70969;BMP280;58630;43.022;25.100;2022-12-18T14:13:32;100869.38;;;11.76
70969;BMP280;58630;43.022;25.100;2022-12-18T14:16:00;100879.81;;;11.76
70969;BMP280;58630;43.022;25.100;2022-12-18T14:18:29;100887.63;;;11.76
70969;BMP280;58630;43.022;25.100;2022-12-18T14:20:59;100886.03;;;11.75
70969;BMP280;58630;43.022;25.100;2022-12-18T14:23:35;100902.66;;;11.74
70969;BMP280;58630;43.022;25.100;2022-12-18T14:26:01;100907.13;;;11.73
70969;BMP280;58630;43.022;25.100;2022-12-18T14:28:27;100900.31;;;11.72
70969;BMP280;58630;43.022;25.100;2022-12-18T14:30:53;100906.56;;;11.71
70969;BMP280;58630;43.022;25.100;2022-12-18T14:33:23;100910.16;;;11.70
70969;BMP280;58630;43.022;25.100;2022-12-18T14:36:02;100911.19;;;11.69
70969;BMP280;58630;43.022;25.100;2022-12-18T14:38:31;100908.00;;;11.67
70969;BMP280;58630;43.022;25.100;2022-12-18T14:40:57;100916.84;;;11.66
70969;BMP280;58630;43.022;25.100;2022-12-18T14:43:23;100911.66;;;11.66
70969;BMP280;58630;43.022;25.100;2022-12-18T14:45:48;100915.25;;;11.65
70969;BMP280;58630;43.022;25.100;2022-12-18T14:48:19;100924.09;;;11.64
70969;BMP280;58630;43.022;25.100;2022-12-18T14:50:44;100920.69;;;11.64
70969;BMP280;58630;43.022;25.100;2022-12-18T14:53:20;100927.72;;;11.63
70969;BMP280;58630;43.022;25.100;2022-12-18T14:55:46;100919.09;;;11.63
70969;BMP280;58630;43.022;25.100;2022-12-18T14:58:13;100923.50;;;11.62
70969;BMP280;58630;43.022;25.100;2022-12-18T15:00:40;100927.13;;;11.61
70969;BMP280;58630;43.022;25.100;2022-12-18T15:03:06;100917.72;;;11.60
70969;BMP280;58630;43.022;25.100;2022-12-18T15:05:32;100927.38;;;11.60
70969;BMP280;58630;43.022;25.100;2022-12-18T15:07:59;100933.63;;;11.59
70969;BMP280;58630;43.022;25.100;2022-12-18T15:10:26;100942.19;;;11.59
70969;BMP280;58630;43.022;25.100;2022-12-18T15:18:19;100945.25;;;11.56
70969;BMP280;58630;43.022;25.100;2022-12-18T15:25:54;100964.47;;;11.55
70969;BMP280;58630;43.022;25.100;2022-12-18T15:28:30;100959.28;;;11.55
70969;BMP280;58630;43.022;25.100;2022-12-18T15:33:26;100960.75;;;11.51
70969;BMP280;58630;43.022;25.100;2022-12-18T15:36:01;100965.94;;;11.51
70969;BMP280;58630;43.022;25.100;2022-12-18T15:38:27;100974.78;;;11.50
70969;BMP280;58630;43.022;25.100;2022-12-18T15:40:53;100973.19;;;11.49
70969;BMP280;58630;43.022;25.100;2022-12-18T15:43:19;100982.81;;;11.49
70969;BMP280;58630;43.022;25.100;2022-12-18T15:46:02;100983.59;;;11.49
70969;BMP280;58630;43.022;25.100;2022-12-18T15:48:27;100976.00;;;11.48
70969;BMP280;58630;43.022;25.100;2022-12-18T15:50:53;100983.81;;;11.48
70969;BMP280;58630;43.022;25.100;2022-12-18T15:53:20;100981.22;;;11.48
70969;BMP280;58630;43.022;25.100;2022-12-18T15:55:45;100990.03;;;11.47
70969;BMP280;58630;43.022;25.100;2022-12-18T15:58:29;100996.25;;;11.46